sensor_id;sensor_type;location;lat;lon;timestamp;P1;durP1;ratioP1;P2;durP2;ratioP2
8831;SDS011;4452;50.756;4.472;2023-10-09T00:00:05;7.38;;;4.70;;
8831;SDS011;4452;50.756;4.472;2023-10-09T00:02:50;6.60;;;5.13;;
8831;SDS011;4452;50.756;4.472;2023-10-09T00:05:16;11.82;;;5.03;;
8831;SDS011;4452;50.756;4.472;2023-10-09T00:08:03;8.30;;;4.82;;
8831;SDS011;4452;50.756;4.472;2023-10-09T00:10:29;17.38;;;4.70;;
8831;SDS011;4452;50.756;4.472;2023-10-09T00:13:01;12.65;;;5.88;;
8831;SDS011;4452;50.756;4.472;2023-10-09T00:15:28;13.93;;;4.82;;
8831;SDS011;4452;50.756;4.472;2023-10-09T00:17:58;10.43;;;5.18;;
8831;SDS011;4452;50.756;4.472;2023-10-09T00:20:23;12.23;;;5.03;;
8831;SDS011;4452;50.756;4.472;2023-10-09T00:23:03;8.95;;;5.03;;
8831;SDS011;4452;50.756;4.472;2023-10-09T00:25:37;10.77;;;5.15;;
8831;SDS011;4452;50.756;4.472;2023-10-09T00:28:10;5.97;;;4.70;;
8831;SDS011;4452;50.756;4.472;2023-10-09T00:30:40;9.20;;;5.22;;
8831;SDS011;4452;50.756;4.472;2023-10-09T00:33:06;7.13;;;4.80;;
8831;SDS011;4452;50.756;4.472;2023-10-09T00:35:35;8.30;;;5.15;;
8831;SDS011;4452;50.756;4.472;2023-10-09T00:38:03;6.95;;;4.50;;
8831;SDS011;4452;50.756;4.472;2023-10-09T00:40:45;8.85;;;5.18;;
8831;SDS011;4452;50.756;4.472;2023-10-09T00:43:15;8.80;;;5.32;;
8831;SDS011;4452;50.756;4.472;2023-10-09T00:45:44;8.57;;;5.30;;
8831;SDS011;4452;50.756;4.472;2023-10-09T00:48:11;11.20;;;5.15;;
8831;SDS011;4452;50.756;4.472;2023-10-09T00:50:48;8.90;;;5.38;;
8831;SDS011;4452;50.756;4.472;2023-10-09T00:53:18;10.32;;;5.20;;
8831;SDS011;4452;50.756;4.472;2023-10-09T00:55:56;9.13;;;5.22;;
8831;SDS011;4452;50.756;4.472;2023-10-09T00:58:23;7.63;;;5.20;;
8831;SDS011;4452;50.756;4.472;2023-10-09T01:00:56;6.10;;;4.75;;
8831;SDS011;4452;50.756;4.472;2023-10-09T01:03:24;8.07;;;5.07;;
8831;SDS011;4452;50.756;4.472;2023-10-09T01:05:51;7.85;;;5.45;;
8831;SDS011;4452;50.756;4.472;2023-10-09T01:08:41;8.35;;;5.05;;
8831;SDS011;4452;50.756;4.472;2023-10-09T01:11:07;15.55;;;5.47;;
8831;SDS011;4452;50.756;4.472;2023-10-09T01:13:55;12.32;;;5.28;;
8831;SDS011;4452;50.756;4.472;2023-10-09T01:16:33;10.63;;;5.43;;
8831;SDS011;4452;50.756;4.472;2023-10-09T01:18:59;8.00;;;4.93;;
8831;SDS011;4452;50.756;4.472;2023-10-09T01:21:26;11.98;;;5.22;;
8831;SDS011;4452;50.756;4.472;2023-10-09T01:23:54;10.02;;;5.00;;
8831;SDS011;4452;50.756;4.472;2023-10-09T01:26:40;14.93;;;5.55;;
8831;SDS011;4452;50.756;4.472;2023-10-09T01:29:10;10.20;;;5.05;;
8831;SDS011;4452;50.756;4.472;2023-10-09T01:34:25;9.25;;;5.00;;
8831;SDS011;4452;50.756;4.472;2023-10-09T01:37:07;20.58;;;5.63;;
8831;SDS011;4452;50.756;4.472;2023-10-09T01:39:54;10.27;;;5.15;;
8831;SDS011;4452;50.756;4.472;2023-10-09T01:42:24;11.35;;;5.65;;
8831;SDS011;4452;50.756;4.472;2023-10-09T01:44:59;9.10;;;5.53;;
8831;SDS011;4452;50.756;4.472;2023-10-09T01:47:52;13.50;;;6.00;;
8831;SDS011;4452;50.756;4.472;2023-10-09T01:50:21;11.43;;;5.72;;
8831;SDS011;4452;50.756;4.472;2023-10-09T01:52:56;10.77;;;5.18;;
8831;SDS011;4452;50.756;4.472;2023-10-09T01:55:22;10.10;;;5.10;;
8831;SDS011;4452;50.756;4.472;2023-10-09T01:58:14;8.38;;;5.10;;
8831;SDS011;4452;50.756;4.472;2023-10-09T02:00:52;11.30;;;5.43;;
8831;SDS011;4452;50.756;4.472;2023-10-09T02:03:21;8.32;;;5.13;;
8831;SDS011;4452;50.756;4.472;2023-10-09T02:05:52;7.15;;;5.10;;
8831;SDS011;4452;50.756;4.472;2023-10-09T02:08:18;9.10;;;5.43;;
8831;SDS011;4452;50.756;4.472;2023-10-09T02:11:00;11.55;;;5.07;;
8831;SDS011;4452;50.756;4.472;2023-10-09T02:13:27;7.93;;;5.10;;
8831;SDS011;4452;50.756;4.472;2023-10-09T02:15:59;10.15;;;5.60;;
8831;SDS011;4452;50.756;4.472;2023-10-09T02:18:41;12.50;;;5.60;;
8831;SDS011;4452;50.756;4.472;2023-10-09T02:21:21;12.40;;;5.53;;
8831;SDS011;4452;50.756;4.472;2023-10-09T02:23:58;10.45;;;5.05;;
8831;SDS011;4452;50.756;4.472;2023-10-09T02:26:28;6.20;;;4.93;;
8831;SDS011;4452;50.756;4.472;2023-10-09T02:29:17;8.20;;;4.97;;
8831;SDS011;4452;50.756;4.472;2023-10-09T02:31:42;12.43;;;5.63;;
8831;SDS011;4452;50.756;4.472;2023-10-09T02:34:17;10.07;;;5.05;;
8831;SDS011;4452;50.756;4.472;2023-10-09T02:36:52;8.88;;;5.63;;
8831;SDS011;4452;50.756;4.472;2023-10-09T02:39:30;7.72;;;5.30;;
8831;SDS011;4452;50.756;4.472;2023-10-09T02:42:08;6.70;;;4.72;;
8831;SDS011;4452;50.756;4.472;2023-10-09T02:44:37;7.68;;;4.93;;
8831;SDS011;4452;50.756;4.472;2023-10-09T02:47:11;10.32;;;5.60;;
8831;SDS011;4452;50.756;4.472;2023-10-09T02:49:43;8.90;;;4.95;;
8831;SDS011;4452;50.756;4.472;2023-10-09T02:52:09;8.40;;;5.10;;
8831;SDS011;4452;50.756;4.472;2023-10-09T02:54:42;6.40;;;4.60;;
8831;SDS011;4452;50.756;4.472;2023-10-09T02:57:11;6.70;;;4.45;;
8831;SDS011;4452;50.756;4.472;2023-10-09T02:59:47;10.52;;;4.65;;
8831;SDS011;4452;50.756;4.472;2023-10-09T03:02:17;9.90;;;5.28;;
8831;SDS011;4452;50.756;4.472;2023-10-09T03:04:43;9.35;;;5.20;;
8831;SDS011;4452;50.756;4.472;2023-10-09T03:07:09;8.52;;;5.25;;
8831;SDS011;4452;50.756;4.472;2023-10-09T03:09:38;8.00;;;4.55;;
8831;SDS011;4452;50.756;4.472;2023-10-09T03:12:06;9.52;;;4.90;;
8831;SDS011;4452;50.756;4.472;2023-10-09T03:14:35;8.45;;;5.40;;
8831;SDS011;4452;50.756;4.472;2023-10-09T03:17:03;10.88;;;5.35;;
8831;SDS011;4452;50.756;4.472;2023-10-09T03:19:33;7.72;;;4.90;;
8831;SDS011;4452;50.756;4.472;2023-10-09T03:22:03;9.75;;;5.38;;
8831;SDS011;4452;50.756;4.472;2023-10-09T03:24:29;7.90;;;5.10;;
8831;SDS011;4452;50.756;4.472;2023-10-09T03:26:58;8.88;;;5.13;;
8831;SDS011;4452;50.756;4.472;2023-10-09T03:29:25;6.40;;;4.70;;
8831;SDS011;4452;50.756;4.472;2023-10-09T03:31:52;11.70;;;5.05;;
8831;SDS011;4452;50.756;4.472;2023-10-09T03:34:20;6.18;;;4.50;;
8831;SDS011;4452;50.756;4.472;2023-10-09T03:36:47;7.28;;;4.93;;
8831;SDS011;4452;50.756;4.472;2023-10-09T03:39:25;8.63;;;5.32;;
8831;SDS011;4452;50.756;4.472;2023-10-09T03:42:12;6.28;;;4.40;;
8831;SDS011;4452;50.756;4.472;2023-10-09T03:44:44;16.50;;;5.97;;
8831;SDS011;4452;50.756;4.472;2023-10-09T03:47:17;7.60;;;5.75;;
8831;SDS011;4452;50.756;4.472;2023-10-09T03:49:48;8.00;;;5.40;;
8831;SDS011;4452;50.756;4.472;2023-10-09T03:52:16;9.63;;;4.88;;
8831;SDS011;4452;50.756;4.472;2023-10-09T03:54:43;10.25;;;4.72;;
8831;SDS011;4452;50.756;4.472;2023-10-09T03:57:12;7.82;;;5.55;;
8831;SDS011;4452;50.756;4.472;2023-10-09T03:59:44;10.90;;;5.70;;
8831;SDS011;4452;50.756;4.472;2023-10-09T04:02:13;10.05;;;5.43;;
8831;SDS011;4452;50.756;4.472;2023-10-09T04:04:40;8.23;;;4.57;;
8831;SDS011;4452;50.756;4.472;2023-10-09T04:07:12;9.88;;;5.30;;
8831;SDS011;4452;50.756;4.472;2023-10-09T04:09:41;7.57;;;4.90;;
8831;SDS011;4452;50.756;4.472;2023-10-09T04:12:09;11.07;;;5.28;;
8831;SDS011;4452;50.756;4.472;2023-10-09T04:14:39;13.77;;;5.00;;
8831;SDS011;4452;50.756;4.472;2023-10-09T04:17:13;11.82;;;5.38;;
8831;SDS011;4452;50.756;4.472;2023-10-09T04:19:48;9.77;;;5.32;;
8831;SDS011;4452;50.756;4.472;2023-10-09T04:22:38;10.07;;;5.50;;
8831;SDS011;4452;50.756;4.472;2023-10-09T04:25:05;16.58;;;5.85;;
8831;SDS011;4452;50.756;4.472;2023-10-09T04:27:40;11.90;;;5.60;;
8831;SDS011;4452;50.756;4.472;2023-10-09T04:30:06;8.65;;;5.57;;
8831;SDS011;4452;50.756;4.472;2023-10-09T04:32:33;13.55;;;5.90;;
8831;SDS011;4452;50.756;4.472;2023-10-09T04:35:00;9.60;;;5.55;;
8831;SDS011;4452;50.756;4.472;2023-10-09T04:37:44;7.75;;;5.53;;
8831;SDS011;4452;50.756;4.472;2023-10-09T04:40:17;11.73;;;5.45;;
8831;SDS011;4452;50.756;4.472;2023-10-09T04:43:02;10.93;;;5.43;;
8831;SDS011;4452;50.756;4.472;2023-10-09T04:45:31;10.30;;;5.78;;
8831;SDS011;4452;50.756;4.472;2023-10-09T04:48:19;11.60;;;5.97;;
8831;SDS011;4452;50.756;4.472;2023-10-09T04:50:58;12.93;;;5.75;;
8831;SDS011;4452;50.756;4.472;2023-10-09T04:53:43;11.65;;;5.72;;
8831;SDS011;4452;50.756;4.472;2023-10-09T04:56:13;13.20;;;6.28;;
8831;SDS011;4452;50.756;4.472;2023-10-09T04:58:41;13.07;;;5.88;;
8831;SDS011;4452;50.756;4.472;2023-10-09T05:01:07;16.25;;;6.15;;
8831;SDS011;4452;50.756;4.472;2023-10-09T05:03:40;10.60;;;5.63;;
8831;SDS011;4452;50.756;4.472;2023-10-09T05:06:06;13.57;;;6.35;;
8831;SDS011;4452;50.756;4.472;2023-10-09T05:08:50;15.07;;;7.05;;
8831;SDS011;4452;50.756;4.472;2023-10-09T05:11:21;9.25;;;5.57;;
8831;SDS011;4452;50.756;4.472;2023-10-09T05:14:00;15.30;;;6.32;;
8831;SDS011;4452;50.756;4.472;2023-10-09T05:16:38;13.75;;;6.30;;
8831;SDS011;4452;50.756;4.472;2023-10-09T05:19:19;8.77;;;5.75;;
8831;SDS011;4452;50.756;4.472;2023-10-09T05:22:15;14.27;;;6.22;;
8831;SDS011;4452;50.756;4.472;2023-10-09T05:25:01;12.85;;;6.35;;
8831;SDS011;4452;50.756;4.472;2023-10-09T05:27:29;11.45;;;5.95;;
8831;SDS011;4452;50.756;4.472;2023-10-09T05:30:24;12.65;;;6.47;;
8831;SDS011;4452;50.756;4.472;2023-10-09T05:32:51;11.80;;;6.78;;
8831;SDS011;4452;50.756;4.472;2023-10-09T05:35:21;15.00;;;6.20;;
8831;SDS011;4452;50.756;4.472;2023-10-09T05:38:03;12.40;;;6.10;;
8831;SDS011;4452;50.756;4.472;2023-10-09T05:40:40;15.80;;;6.28;;
8831;SDS011;4452;50.756;4.472;2023-10-09T05:43:08;10.95;;;6.05;;
8831;SDS011;4452;50.756;4.472;2023-10-09T05:45:54;14.02;;;7.07;;
8831;SDS011;4452;50.756;4.472;2023-10-09T05:48:33;18.00;;;7.78;;
8831;SDS011;4452;50.756;4.472;2023-10-09T05:51:18;14.05;;;6.78;;
8831;SDS011;4452;50.756;4.472;2023-10-09T05:54:02;13.73;;;6.22;;
8831;SDS011;4452;50.756;4.472;2023-10-09T05:56:48;13.35;;;6.75;;
8831;SDS011;4452;50.756;4.472;2023-10-09T05:59:32;10.55;;;6.45;;
8831;SDS011;4452;50.756;4.472;2023-10-09T06:02:17;10.65;;;6.30;;
8831;SDS011;4452;50.756;4.472;2023-10-09T06:05:02;11.75;;;6.53;;
8831;SDS011;4452;50.756;4.472;2023-10-09T06:07:48;10.07;;;6.13;;
8831;SDS011;4452;50.756;4.472;2023-10-09T06:10:31;15.63;;;6.50;;
8831;SDS011;4452;50.756;4.472;2023-10-09T06:13:05;11.63;;;6.22;;
8831;SDS011;4452;50.756;4.472;2023-10-09T06:15:37;8.98;;;5.70;;
8831;SDS011;4452;50.756;4.472;2023-10-09T06:18:15;12.00;;;6.00;;
8831;SDS011;4452;50.756;4.472;2023-10-09T06:20:58;8.52;;;6.10;;
8831;SDS011;4452;50.756;4.472;2023-10-09T06:23:30;10.88;;;5.78;;
8831;SDS011;4452;50.756;4.472;2023-10-09T06:26:14;12.77;;;6.43;;
8831;SDS011;4452;50.756;4.472;2023-10-09T06:28:49;12.88;;;6.45;;
8831;SDS011;4452;50.756;4.472;2023-10-09T06:31:35;16.55;;;7.15;;
8831;SDS011;4452;50.756;4.472;2023-10-09T06:34:19;12.50;;;7.30;;
8831;SDS011;4452;50.756;4.472;2023-10-09T06:36:47;11.68;;;6.95;;
8831;SDS011;4452;50.756;4.472;2023-10-09T06:39:18;18.65;;;7.03;;
8831;SDS011;4452;50.756;4.472;2023-10-09T06:42:02;9.73;;;6.60;;
8831;SDS011;4452;50.756;4.472;2023-10-09T06:44:54;10.48;;;6.30;;
8831;SDS011;4452;50.756;4.472;2023-10-09T06:47:19;9.98;;;6.65;;
8831;SDS011;4452;50.756;4.472;2023-10-09T06:49:49;12.52;;;7.00;;
8831;SDS011;4452;50.756;4.472;2023-10-09T06:52:34;15.18;;;7.25;;
8831;SDS011;4452;50.756;4.472;2023-10-09T06:55:18;12.50;;;7.20;;
8831;SDS011;4452;50.756;4.472;2023-10-09T06:57:45;14.27;;;7.15;;
8831;SDS011;4452;50.756;4.472;2023-10-09T07:00:14;20.30;;;8.00;;
8831;SDS011;4452;50.756;4.472;2023-10-09T07:03:00;14.45;;;7.18;;
8831;SDS011;4452;50.756;4.472;2023-10-09T07:05:36;11.30;;;7.47;;
8831;SDS011;4452;50.756;4.472;2023-10-09T07:08:22;15.35;;;6.82;;
8831;SDS011;4452;50.756;4.472;2023-10-09T07:10:58;17.90;;;8.02;;
8831;SDS011;4452;50.756;4.472;2023-10-09T07:13:44;16.10;;;7.75;;
8831;SDS011;4452;50.756;4.472;2023-10-09T07:16:19;17.52;;;8.13;;
8831;SDS011;4452;50.756;4.472;2023-10-09T07:18:49;15.30;;;7.60;;
8831;SDS011;4452;50.756;4.472;2023-10-09T07:21:15;11.88;;;7.22;;
8831;SDS011;4452;50.756;4.472;2023-10-09T07:23:43;18.40;;;8.50;;
8831;SDS011;4452;50.756;4.472;2023-10-09T07:26:14;13.23;;;7.05;;
8831;SDS011;4452;50.756;4.472;2023-10-09T07:28:43;14.18;;;7.78;;
8831;SDS011;4452;50.756;4.472;2023-10-09T07:31:16;27.90;;;8.27;;
8831;SDS011;4452;50.756;4.472;2023-10-09T07:33:50;13.40;;;7.60;;
8831;SDS011;4452;50.756;4.472;2023-10-09T07:36:23;14.52;;;7.38;;
8831;SDS011;4452;50.756;4.472;2023-10-09T07:38:59;13.82;;;7.55;;
8831;SDS011;4452;50.756;4.472;2023-10-09T07:41:39;11.93;;;7.53;;
8831;SDS011;4452;50.756;4.472;2023-10-09T07:44:10;18.50;;;8.18;;
8831;SDS011;4452;50.756;4.472;2023-10-09T07:46:59;15.60;;;7.43;;
8831;SDS011;4452;50.756;4.472;2023-10-09T07:49:43;12.30;;;7.28;;
8831;SDS011;4452;50.756;4.472;2023-10-09T07:52:16;11.57;;;7.53;;
8831;SDS011;4452;50.756;4.472;2023-10-09T07:54:43;16.55;;;8.57;;
8831;SDS011;4452;50.756;4.472;2023-10-09T07:57:16;12.70;;;8.00;;
8831;SDS011;4452;50.756;4.472;2023-10-09T07:59:42;14.82;;;8.00;;
8831;SDS011;4452;50.756;4.472;2023-10-09T08:02:26;16.77;;;8.30;;
8831;SDS011;4452;50.756;4.472;2023-10-09T08:07:44;13.15;;;6.97;;
8831;SDS011;4452;50.756;4.472;2023-10-09T08:10:19;11.48;;;7.85;;
8831;SDS011;4452;50.756;4.472;2023-10-09T08:12:45;18.55;;;8.48;;
8831;SDS011;4452;50.756;4.472;2023-10-09T08:15:14;17.02;;;8.45;;
8831;SDS011;4452;50.756;4.472;2023-10-09T08:17:44;11.23;;;7.47;;
8831;SDS011;4452;50.756;4.472;2023-10-09T08:20:21;9.95;;;7.00;;
8831;SDS011;4452;50.756;4.472;2023-10-09T08:22:51;13.23;;;7.05;;
8831;SDS011;4452;50.756;4.472;2023-10-09T08:25:20;19.00;;;8.02;;
8831;SDS011;4452;50.756;4.472;2023-10-09T08:27:58;17.38;;;8.02;;
8831;SDS011;4452;50.756;4.472;2023-10-09T08:30:40;11.30;;;7.43;;
8831;SDS011;4452;50.756;4.472;2023-10-09T08:33:14;17.30;;;7.63;;
8831;SDS011;4452;50.756;4.472;2023-10-09T08:35:53;18.95;;;7.60;;
8831;SDS011;4452;50.756;4.472;2023-10-09T08:38:32;12.70;;;7.45;;
8831;SDS011;4452;50.756;4.472;2023-10-09T08:41:11;15.93;;;8.10;;
8831;SDS011;4452;50.756;4.472;2023-10-09T08:43:51;17.63;;;7.45;;
8831;SDS011;4452;50.756;4.472;2023-10-09T08:48:45;15.63;;;8.20;;
8831;SDS011;4452;50.756;4.472;2023-10-09T08:51:12;12.88;;;8.13;;
8831;SDS011;4452;50.756;4.472;2023-10-09T08:53:39;11.45;;;7.43;;
8831;SDS011;4452;50.756;4.472;2023-10-09T08:56:11;11.65;;;7.45;;
8831;SDS011;4452;50.756;4.472;2023-10-09T08:58:53;14.07;;;8.50;;
8831;SDS011;4452;50.756;4.472;2023-10-09T09:01:20;12.13;;;6.88;;
8831;SDS011;4452;50.756;4.472;2023-10-09T09:03:48;14.02;;;7.38;;
8831;SDS011;4452;50.756;4.472;2023-10-09T09:06:15;14.88;;;8.20;;
8831;SDS011;4452;50.756;4.472;2023-10-09T09:08:44;17.25;;;7.85;;
8831;SDS011;4452;50.756;4.472;2023-10-09T09:11:20;17.70;;;8.32;;
8831;SDS011;4452;50.756;4.472;2023-10-09T09:16:29;15.27;;;7.72;;
8831;SDS011;4452;50.756;4.472;2023-10-09T09:21:42;16.05;;;7.55;;
8831;SDS011;4452;50.756;4.472;2023-10-09T09:24:13;13.88;;;6.97;;
8831;SDS011;4452;50.756;4.472;2023-10-09T09:26:47;12.75;;;7.18;;
8831;SDS011;4452;50.756;4.472;2023-10-09T09:29:54;14.77;;;7.72;;
8831;SDS011;4452;50.756;4.472;2023-10-09T09:32:27;14.55;;;7.50;;
8831;SDS011;4452;50.756;4.472;2023-10-09T09:35:04;14.00;;;7.70;;
8831;SDS011;4452;50.756;4.472;2023-10-09T09:37:42;18.67;;;8.35;;
8831;SDS011;4452;50.756;4.472;2023-10-09T09:40:18;15.52;;;7.93;;
8831;SDS011;4452;50.756;4.472;2023-10-09T09:43:00;16.00;;;8.48;;
8831;SDS011;4452;50.756;4.472;2023-10-09T09:45:46;9.68;;;6.88;;
8831;SDS011;4452;50.756;4.472;2023-10-09T09:48:14;12.85;;;7.50;;
8831;SDS011;4452;50.756;4.472;2023-10-09T09:50:41;13.45;;;8.20;;
8831;SDS011;4452;50.756;4.472;2023-10-09T09:53:15;17.05;;;7.15;;
8831;SDS011;4452;50.756;4.472;2023-10-09T09:55:45;10.38;;;6.35;;
8831;SDS011;4452;50.756;4.472;2023-10-09T09:58:21;15.32;;;7.38;;
8831;SDS011;4452;50.756;4.472;2023-10-09T10:01:10;16.08;;;7.53;;
8831;SDS011;4452;50.756;4.472;2023-10-09T10:06:14;13.45;;;7.07;;
8831;SDS011;4452;50.756;4.472;2023-10-09T10:08:47;14.20;;;7.50;;
8831;SDS011;4452;50.756;4.472;2023-10-09T10:14:12;12.68;;;7.30;;
8831;SDS011;4452;50.756;4.472;2023-10-09T10:17:00;17.00;;;7.80;;
8831;SDS011;4452;50.756;4.472;2023-10-09T10:20:12;11.43;;;7.28;;
8831;SDS011;4452;50.756;4.472;2023-10-09T10:22:25;13.40;;;7.55;;
8831;SDS011;4452;50.756;4.472;2023-10-09T10:24:55;13.73;;;7.38;;
8831;SDS011;4452;50.756;4.472;2023-10-09T10:27:24;14.38;;;7.63;;
8831;SDS011;4452;50.756;4.472;2023-10-09T10:32:53;15.70;;;7.47;;
8831;SDS011;4452;50.756;4.472;2023-10-09T10:35:21;12.23;;;7.28;;
8831;SDS011;4452;50.756;4.472;2023-10-09T10:41:07;11.93;;;7.05;;
8831;SDS011;4452;50.756;4.472;2023-10-09T10:43:42;8.80;;;6.82;;
8831;SDS011;4452;50.756;4.472;2023-10-09T10:46:17;9.48;;;6.57;;
8831;SDS011;4452;50.756;4.472;2023-10-09T10:48:47;12.05;;;7.32;;
8831;SDS011;4452;50.756;4.472;2023-10-09T10:51:14;12.85;;;7.10;;
8831;SDS011;4452;50.756;4.472;2023-10-09T10:53:52;12.52;;;7.18;;
8831;SDS011;4452;50.756;4.472;2023-10-09T10:56:24;16.30;;;8.35;;
8831;SDS011;4452;50.756;4.472;2023-10-09T10:59:02;21.70;;;8.23;;
8831;SDS011;4452;50.756;4.472;2023-10-09T11:01:31;24.00;;;7.05;;
8831;SDS011;4452;50.756;4.472;2023-10-09T11:04:18;14.70;;;7.68;;
8831;SDS011;4452;50.756;4.472;2023-10-09T11:06:58;16.05;;;7.40;;
8831;SDS011;4452;50.756;4.472;2023-10-09T11:09:54;15.40;;;7.60;;
8831;SDS011;4452;50.756;4.472;2023-10-09T11:12:43;12.00;;;6.80;;
8831;SDS011;4452;50.756;4.472;2023-10-09T11:15:11;12.05;;;7.07;;
8831;SDS011;4452;50.756;4.472;2023-10-09T11:17:59;10.60;;;6.40;;
8831;SDS011;4452;50.756;4.472;2023-10-09T11:20:36;12.98;;;6.93;;
8831;SDS011;4452;50.756;4.472;2023-10-09T11:23:03;13.45;;;7.60;;
8831;SDS011;4452;50.756;4.472;2023-10-09T11:25:43;12.63;;;6.88;;
8831;SDS011;4452;50.756;4.472;2023-10-09T11:28:21;13.05;;;6.65;;
8831;SDS011;4452;50.756;4.472;2023-10-09T11:31:10;12.63;;;7.25;;
8831;SDS011;4452;50.756;4.472;2023-10-09T11:33:47;12.13;;;6.82;;
8831;SDS011;4452;50.756;4.472;2023-10-09T11:36:17;13.30;;;6.18;;
8831;SDS011;4452;50.756;4.472;2023-10-09T11:38:46;12.82;;;6.82;;
8831;SDS011;4452;50.756;4.472;2023-10-09T11:41:19;11.55;;;6.68;;
8831;SDS011;4452;50.756;4.472;2023-10-09T11:43:52;12.80;;;6.70;;
8831;SDS011;4452;50.756;4.472;2023-10-09T11:46:22;9.48;;;6.43;;
8831;SDS011;4452;50.756;4.472;2023-10-09T11:49:13;10.57;;;6.22;;
8831;SDS011;4452;50.756;4.472;2023-10-09T11:51:45;13.50;;;7.03;;
8831;SDS011;4452;50.756;4.472;2023-10-09T11:54:31;17.17;;;6.82;;
8831;SDS011;4452;50.756;4.472;2023-10-09T11:56:58;12.40;;;6.63;;
8831;SDS011;4452;50.756;4.472;2023-10-09T11:59:29;9.30;;;6.18;;
8831;SDS011;4452;50.756;4.472;2023-10-09T12:02:07;11.82;;;6.35;;
8831;SDS011;4452;50.756;4.472;2023-10-09T12:04:37;9.38;;;6.07;;
8831;SDS011;4452;50.756;4.472;2023-10-09T12:07:09;9.27;;;5.77;;
8831;SDS011;4452;50.756;4.472;2023-10-09T12:09:38;17.73;;;6.53;;
8831;SDS011;4452;50.756;4.472;2023-10-09T12:12:05;11.00;;;6.25;;
8831;SDS011;4452;50.756;4.472;2023-10-09T12:14:32;12.57;;;6.05;;
8831;SDS011;4452;50.756;4.472;2023-10-09T12:17:02;8.70;;;6.10;;
8831;SDS011;4452;50.756;4.472;2023-10-09T12:19:33;14.45;;;6.28;;
8831;SDS011;4452;50.756;4.472;2023-10-09T12:22:00;8.73;;;5.82;;
8831;SDS011;4452;50.756;4.472;2023-10-09T12:24:29;13.20;;;6.13;;
8831;SDS011;4452;50.756;4.472;2023-10-09T12:26:55;11.23;;;5.90;;
8831;SDS011;4452;50.756;4.472;2023-10-09T12:29:22;9.68;;;6.43;;
8831;SDS011;4452;50.756;4.472;2023-10-09T12:31:49;12.63;;;6.07;;
8831;SDS011;4452;50.756;4.472;2023-10-09T12:34:23;14.43;;;6.10;;
8831;SDS011;4452;50.756;4.472;2023-10-09T12:36:52;14.82;;;6.35;;
8831;SDS011;4452;50.756;4.472;2023-10-09T12:39:19;13.40;;;6.43;;
8831;SDS011;4452;50.756;4.472;2023-10-09T12:41:46;12.80;;;6.93;;
8831;SDS011;4452;50.756;4.472;2023-10-09T12:44:13;15.85;;;6.45;;
8831;SDS011;4452;50.756;4.472;2023-10-09T12:46:45;11.57;;;6.25;;
8831;SDS011;4452;50.756;4.472;2023-10-09T12:49:21;11.55;;;6.38;;
8831;SDS011;4452;50.756;4.472;2023-10-09T12:51:53;9.30;;;5.90;;
8831;SDS011;4452;50.756;4.472;2023-10-09T12:54:19;12.75;;;6.78;;
8831;SDS011;4452;50.756;4.472;2023-10-09T12:56:49;7.72;;;5.50;;
8831;SDS011;4452;50.756;4.472;2023-10-09T12:59:15;10.20;;;6.53;;
8831;SDS011;4452;50.756;4.472;2023-10-09T13:01:41;8.05;;;6.15;;
8831;SDS011;4452;50.756;4.472;2023-10-09T13:04:13;9.98;;;5.82;;
8831;SDS011;4452;50.756;4.472;2023-10-09T13:06:43;7.43;;;5.82;;
8831;SDS011;4452;50.756;4.472;2023-10-09T13:09:10;10.95;;;6.07;;
8831;SDS011;4452;50.756;4.472;2023-10-09T13:11:36;9.85;;;5.72;;
8831;SDS011;4452;50.756;4.472;2023-10-09T13:14:08;10.88;;;6.10;;
8831;SDS011;4452;50.756;4.472;2023-10-09T13:16:47;13.43;;;6.20;;
8831;SDS011;4452;50.756;4.472;2023-10-09T13:19:15;14.90;;;6.45;;
8831;SDS011;4452;50.756;4.472;2023-10-09T13:21:42;12.02;;;6.03;;
8831;SDS011;4452;50.756;4.472;2023-10-09T13:24:09;8.25;;;6.03;;
8831;SDS011;4452;50.756;4.472;2023-10-09T13:26:44;13.73;;;6.40;;
8831;SDS011;4452;50.756;4.472;2023-10-09T13:29:11;9.73;;;6.25;;
8831;SDS011;4452;50.756;4.472;2023-10-09T13:31:38;13.07;;;6.30;;
8831;SDS011;4452;50.756;4.472;2023-10-09T13:34:05;13.05;;;6.05;;
8831;SDS011;4452;50.756;4.472;2023-10-09T13:36:40;13.55;;;6.05;;
8831;SDS011;4452;50.756;4.472;2023-10-09T13:39:13;8.52;;;5.43;;
8831;SDS011;4452;50.756;4.472;2023-10-09T13:44:27;9.52;;;6.07;;
8831;SDS011;4452;50.756;4.472;2023-10-09T13:46:54;10.82;;;5.95;;
8831;SDS011;4452;50.756;4.472;2023-10-09T13:49:20;8.32;;;5.90;;
8831;SDS011;4452;50.756;4.472;2023-10-09T13:51:48;9.35;;;5.32;;
8831;SDS011;4452;50.756;4.472;2023-10-09T13:54:15;8.00;;;6.07;;
8831;SDS011;4452;50.756;4.472;2023-10-09T13:57:07;9.68;;;5.55;;
8831;SDS011;4452;50.756;4.472;2023-10-09T13:59:35;9.88;;;6.75;;
8831;SDS011;4452;50.756;4.472;2023-10-09T14:02:07;9.57;;;6.28;;
8831;SDS011;4452;50.756;4.472;2023-10-09T14:04:41;8.85;;;6.53;;
8831;SDS011;4452;50.756;4.472;2023-10-09T14:07:08;13.27;;;6.63;;
8831;SDS011;4452;50.756;4.472;2023-10-09T14:09:34;9.75;;;6.80;;
8831;SDS011;4452;50.756;4.472;2023-10-09T14:12:03;14.07;;;7.25;;
8831;SDS011;4452;50.756;4.472;2023-10-09T14:17:08;12.30;;;6.72;;
8831;SDS011;4452;50.756;4.472;2023-10-09T14:19:38;13.05;;;6.63;;
8831;SDS011;4452;50.756;4.472;2023-10-09T14:22:12;11.27;;;6.25;;
8831;SDS011;4452;50.756;4.472;2023-10-09T14:24:41;11.15;;;7.05;;
8831;SDS011;4452;50.756;4.472;2023-10-09T14:27:10;12.40;;;7.10;;
8831;SDS011;4452;50.756;4.472;2023-10-09T14:29:49;13.73;;;7.53;;
8831;SDS011;4452;50.756;4.472;2023-10-09T14:32:15;9.70;;;6.40;;
8831;SDS011;4452;50.756;4.472;2023-10-09T14:34:44;15.98;;;6.63;;
8831;SDS011;4452;50.756;4.472;2023-10-09T14:37:16;13.43;;;6.97;;
8831;SDS011;4452;50.756;4.472;2023-10-09T14:39:44;14.25;;;6.93;;
8831;SDS011;4452;50.756;4.472;2023-10-09T14:42:14;11.23;;;6.55;;
8831;SDS011;4452;50.756;4.472;2023-10-09T14:44:42;24.63;;;9.63;;
8831;SDS011;4452;50.756;4.472;2023-10-09T14:47:10;16.10;;;6.75;;
8831;SDS011;4452;50.756;4.472;2023-10-09T14:49:36;11.18;;;7.15;;
8831;SDS011;4452;50.756;4.472;2023-10-09T14:52:08;12.93;;;6.40;;
8831;SDS011;4452;50.756;4.472;2023-10-09T14:54:38;14.43;;;7.05;;
8831;SDS011;4452;50.756;4.472;2023-10-09T14:57:04;12.68;;;6.50;;
8831;SDS011;4452;50.756;4.472;2023-10-09T14:59:34;10.32;;;6.40;;
8831;SDS011;4452;50.756;4.472;2023-10-09T15:02:00;13.82;;;7.30;;
8831;SDS011;4452;50.756;4.472;2023-10-09T15:04:26;20.15;;;7.22;;
8831;SDS011;4452;50.756;4.472;2023-10-09T15:06:52;17.13;;;7.43;;
8831;SDS011;4452;50.756;4.472;2023-10-09T15:09:17;12.73;;;7.07;;
8831;SDS011;4452;50.756;4.472;2023-10-09T15:11:53;22.20;;;7.78;;
8831;SDS011;4452;50.756;4.472;2023-10-09T15:14:19;16.38;;;7.53;;
8831;SDS011;4452;50.756;4.472;2023-10-09T15:16:45;19.52;;;7.25;;
8831;SDS011;4452;50.756;4.472;2023-10-09T15:19:15;15.25;;;7.18;;
8831;SDS011;4452;50.756;4.472;2023-10-09T15:21:45;10.10;;;6.70;;
8831;SDS011;4452;50.756;4.472;2023-10-09T15:24:14;12.80;;;6.68;;
8831;SDS011;4452;50.756;4.472;2023-10-09T15:26:44;9.00;;;6.55;;
8831;SDS011;4452;50.756;4.472;2023-10-09T15:29:31;13.32;;;7.60;;
8831;SDS011;4452;50.756;4.472;2023-10-09T15:31:58;12.63;;;7.57;;
8831;SDS011;4452;50.756;4.472;2023-10-09T15:34:30;18.58;;;7.38;;
8831;SDS011;4452;50.756;4.472;2023-10-09T15:36:56;10.55;;;6.63;;
8831;SDS011;4452;50.756;4.472;2023-10-09T15:39:22;9.15;;;6.43;;
8831;SDS011;4452;50.756;4.472;2023-10-09T15:41:49;12.00;;;6.88;;
8831;SDS011;4452;50.756;4.472;2023-10-09T15:44:16;13.07;;;7.40;;
8831;SDS011;4452;50.756;4.472;2023-10-09T15:46:42;12.40;;;7.25;;
8831;SDS011;4452;50.756;4.472;2023-10-09T15:49:11;9.02;;;6.40;;
8831;SDS011;4452;50.756;4.472;2023-10-09T15:51:39;11.10;;;7.13;;
8831;SDS011;4452;50.756;4.472;2023-10-09T15:54:05;15.10;;;6.40;;
8831;SDS011;4452;50.756;4.472;2023-10-09T15:56:31;16.40;;;7.10;;
8831;SDS011;4452;50.756;4.472;2023-10-09T15:58:58;14.80;;;7.18;;
8831;SDS011;4452;50.756;4.472;2023-10-09T16:01:24;16.05;;;7.65;;
8831;SDS011;4452;50.756;4.472;2023-10-09T16:03:50;10.02;;;6.97;;
8831;SDS011;4452;50.756;4.472;2023-10-09T16:06:18;9.65;;;6.40;;
8831;SDS011;4452;50.756;4.472;2023-10-09T16:08:48;9.63;;;6.57;;
8831;SDS011;4452;50.756;4.472;2023-10-09T16:11:18;13.48;;;6.93;;